Time;durP1;ratioP1;P1;durP2;ratioP2;P2;SDS_P1;SDS_P2;PMS_P1;PMS_P2;Temp;Humidity;BMP_temperature;BMP_pressure;BME280_temperature;BME280_humidity;BME280_pressure;Samples;Min_cycle;Max_cycle;Signal;HPM_P1;HPM_P2
2024/01/08 00:01:25;;;;;;;4.70;3.40;;;;;;;-1.99;60.46;102740.72;4994361;28;97237;-58
2024/01/08 00:03:51;;;;;;;3.93;3.50;;;;;;;-2.05;60.79;102736.81;4993590;28;96737;-58
2024/01/08 00:06:18;;;;;;;6.83;3.57;;;;;;;-2.06;60.87;102734.50;4995198;28;97782;-58
2024/01/08 00:08:43;;;;;;;4.40;3.60;;;;;;;-2.03;60.88;102734.50;4994951;28;97508;-58
2024/01/08 00:11:09;;;;;;;4.57;3.07;;;;;;;-2.00;60.78;102732.97;4991957;28;97697;-58
2024/01/08 00:13:34;;;;;;;5.50;3.73;;;;;;;-1.95;60.93;102729.13;4991775;28;97446;-58
2024/01/08 00:15:59;;;;;;;4.77;3.90;;;;;;;-1.97;60.61;102734.91;4993867;28;97073;-58
2024/01/08 00:18:24;;;;;;;4.17;3.67;;;;;;;-2.02;60.42;102735.28;4996170;28;109621;-58
2024/01/08 00:20:50;;;;;;;4.23;3.60;;;;;;;-2.06;60.89;102765.06;4996658;28;97257;-58
2024/01/08 00:23:15;;;;;;;3.57;3.10;;;;;;;-2.09;60.55;102752.28;4992513;28;98252;-58
2024/01/08 00:25:40;;;;;;;4.50;3.30;;;;;;;-2.08;60.89;102743.00;4995149;28;99483;-58
2024/01/08 00:28:06;;;;;;;3.90;3.17;;;;;;;-2.01;61.16;102740.31;4995300;28;109191;-58
2024/01/08 00:30:31;;;;;;;3.53;2.90;;;;;;;-1.98;60.78;102742.28;4991082;28;107438;-58
2024/01/08 00:32:56;;;;;;;4.53;3.00;;;;;;;-1.98;61.01;102733.38;4994520;28;97316;-58
2024/01/08 00:35:22;;;;;;;4.40;2.80;;;;;;;-1.95;61.13;102738.06;4990812;28;97219;-58
2024/01/08 00:37:47;;;;;;;5.10;3.20;;;;;;;-1.92;60.95;102744.63;4992148;28;100316;-58
2024/01/08 00:40:12;;;;;;;4.60;3.23;;;;;;;-1.89;60.96;102739.25;4991923;28;99007;-58
2024/01/08 00:42:38;;;;;;;4.23;3.00;;;;;;;-1.85;60.51;102744.66;4995379;28;97417;-58
2024/01/08 00:45:05;;;;;;;4.63;3.37;;;;;;;-1.88;60.42;102754.34;4994286;28;96909;-58
2024/01/08 00:47:30;;;;;;;4.30;3.77;;;;;;;-1.93;60.61;102749.28;4993168;28;100035;-58
2024/01/08 00:49:56;;;;;;;5.53;3.67;;;;;;;-1.91;60.88;102757.84;4993026;28;103937;-58
2024/01/08 00:52:21;;;;;;;3.57;2.93;;;;;;;-1.88;60.90;102753.59;4995971;28;97181;-57
2024/01/08 00:54:46;;;;;;;5.17;3.50;;;;;;;-1.90;60.65;102764.00;5000647;28;97160;-58
2024/01/08 00:57:12;;;;;;;4.53;3.27;;;;;;;-1.92;61.01;102766.31;4996475;28;104248;-58
2024/01/08 00:59:37;;;;;;;3.50;3.20;;;;;;;-1.91;60.70;102759.75;4996658;28;108638;-57
2024/01/08 01:02:02;;;;;;;4.90;3.87;;;;;;;-1.91;61.02;102765.19;4995622;28;96805;-58
2024/01/08 01:04:28;;;;;;;4.40;3.67;;;;;;;-1.90;60.65;102759.38;4993746;28;97568;-58
2024/01/08 01:06:53;;;;;;;5.73;3.90;;;;;;;-1.94;60.62;102758.56;4997592;28;97816;-58
2024/01/08 01:09:18;;;;;;;3.87;3.27;;;;;;;-1.97;60.74;102762.81;4996289;28;112144;-58
2024/01/08 01:11:44;;;;;;;3.53;3.23;;;;;;;-2.00;60.81;102770.94;4996002;28;97316;-58
2024/01/08 01:14:09;;;;;;;5.30;3.70;;;;;;;-2.08;60.60;102761.97;4995755;28;96995;-58
2024/01/08 01:16:34;;;;;;;5.50;4.63;;;;;;;-2.10;60.89;102769.72;4993832;28;98621;-58
2024/01/08 01:19:00;;;;;;;4.67;3.47;;;;;;;-2.09;61.20;102765.84;4994852;28;97145;-58
2024/01/08 01:21:27;;;;;;;5.13;4.10;;;;;;;-2.07;60.93;102763.53;4997595;28;97231;-58
2024/01/08 01:23:53;;;;;;;5.77;3.70;;;;;;;-2.05;61.13;102766.66;4993990;28;97125;-58
2024/01/08 01:26:18;;;;;;;4.13;3.37;;;;;;;-2.00;61.17;102777.16;4995135;28;96793;-58
2024/01/08 01:28:43;;;;;;;4.60;3.20;;;;;;;-1.95;60.91;102762.47;4995792;28;107167;-58
2024/01/08 01:31:12;;;;;;;5.70;3.67;;;;;;;-1.91;61.07;102773.31;4995741;28;97178;-58
2024/01/08 01:33:38;;;;;;;3.30;3.00;;;;;;;-1.93;61.05;102778.34;4995537;28;97148;-58
2024/01/08 01:36:04;;;;;;;4.40;3.30;;;;;;;-1.93;61.02;102778.34;4993607;28;97320;-58
2024/01/08 01:38:29;;;;;;;4.90;3.00;;;;;;;-1.85;61.03;102777.22;4997840;28;97154;-58
2024/01/08 01:40:55;;;;;;;3.43;3.03;;;;;;;-1.82;61.08;102771.06;4993501;28;96981;-58
2024/01/08 01:43:21;;;;;;;3.90;3.00;;;;;;;-1.81;60.84;102778.81;4993450;28;97280;-58
2024/01/08 01:45:48;;;;;;;4.73;3.37;;;;;;;-1.79;60.68;102776.50;4993435;28;98493;-58
2024/01/08 01:48:13;;;;;;;3.77;3.40;;;;;;;-1.80;60.84;102785.81;4995157;28;97382;-58
2024/01/08 01:50:39;;;;;;;3.53;3.13;;;;;;;-1.81;60.96;102778.03;4995431;28;96984;-58
2024/01/08 01:53:04;;;;;;;3.90;2.83;;;;;;;-1.80;60.86;102783.09;4995838;28;97057;-58
2024/01/08 01:55:30;;;;;;;5.20;3.67;;;;;;;-1.78;60.90;102786.19;4997236;28;97351;-58
2024/01/08 01:57:55;;;;;;;4.70;3.30;;;;;;;-1.82;60.84;102781.91;4995369;28;98629;-58
2024/01/08 02:00:21;;;;;;;4.70;3.47;;;;;;;-1.84;60.59;102784.22;4997216;28;97131;-58
2024/01/08 02:02:47;;;;;;;3.93;3.20;;;;;;;-1.83;60.78;102780.34;4996558;28;96811;-57
2024/01/08 02:05:13;;;;;;;3.63;3.00;;;;;;;-1.84;60.86;102789.66;4994506;28;97204;-57
2024/01/08 02:07:40;;;;;;;5.20;3.33;;;;;;;-1.81;60.82;102778.03;4995366;28;97781;-58
2024/01/08 02:10:06;;;;;;;3.77;3.10;;;;;;;-1.81;60.82;102788.88;4992300;28;97210;-58
2024/01/08 02:12:32;;;;;;;5.30;3.40;;;;;;;-1.84;60.81;102784.97;4992791;28;96886;-57
2024/01/08 02:14:57;;;;;;;4.33;3.67;;;;;;;-1.84;60.87;102782.25;4998497;28;98541;-55
2024/01/08 02:17:23;;;;;;;4.30;3.30;;;;;;;-1.88;61.04;102788.84;4993356;28;96644;-55
2024/01/08 02:19:48;;;;;;;3.47;3.10;;;;;;;-1.88;60.94;102789.59;4992780;28;96942;-55
2024/01/08 02:22:13;;;;;;;6.50;4.17;;;;;;;-1.90;61.13;102781.06;4994802;28;97066;-55
2024/01/08 02:24:40;;;;;;;3.43;3.10;;;;;;;-1.87;60.92;102784.97;4993744;28;97614;-55
2024/01/08 02:27:05;;;;;;;5.70;3.57;;;;;;;-1.88;61.03;102786.13;4995429;28;97832;-55
2024/01/08 02:29:31;;;;;;;3.90;2.90;;;;;;;-1.83;61.22;102783.03;4995327;28;97288;-55
2024/01/08 02:31:56;;;;;;;3.10;2.90;;;;;;;-1.80;61.18;102779.59;4996475;28;96708;-55
2024/01/08 02:34:21;;;;;;;4.13;3.37;;;;;;;-1.78;60.92;102791.63;4991133;28;105228;-55
2024/01/08 02:36:47;;;;;;;3.23;3.00;;;;;;;-1.79;60.73;102791.97;4995036;28;96928;-55
2024/01/08 02:39:12;;;;;;;5.57;4.13;;;;;;;-1.79;60.75;102791.97;4993600;28;97009;-55
2024/01/08 02:41:38;;;;;;;3.73;2.80;;;;;;;-1.78;60.81;102788.13;4998495;28;97812;-55
2024/01/08 02:44:03;;;;;;;4.23;2.83;;;;;;;-1.73;60.98;102787.78;4996651;28;98314;-55
2024/01/08 02:46:29;;;;;;;4.30;2.87;;;;;;;-1.69;60.84;102794.00;4995624;28;98065;-55
2024/01/08 02:48:54;;;;;;;3.60;2.97;;;;;;;-1.71;60.76;102788.19;4993782;28;97111;-55
2024/01/08 02:51:19;;;;;;;4.30;3.33;;;;;;;-1.71;60.77;102790.88;4995181;28;98856;-55
2024/01/08 02:53:45;;;;;;;4.90;3.70;;;;;;;-1.72;60.96;102792.03;4992728;28;107622;-55
2024/01/08 02:56:21;;;;;;;3.30;2.97;;;;;;;-1.72;61.09;102795.53;4992828;28;98454;-55
2024/01/08 02:58:49;;;;;;;6.50;3.40;;;;;;;-1.72;60.81;102797.47;4992724;28;97209;-55
2024/01/08 03:01:15;;;;;;;2.90;2.50;;;;;;;-1.75;60.67;102795.53;4995357;28;96754;-55
2024/01/08 03:03:40;;;;;;;4.20;3.13;;;;;;;-1.72;60.70;102800.94;4995219;28;96942;-55
2024/01/08 03:06:06;;;;;;;4.73;2.80;;;;;;;-1.75;60.44;102807.13;4992929;28;97347;-55
2024/01/08 03:08:31;;;;;;;3.83;2.93;;;;;;;-1.81;60.67;102807.88;4990304;28;96840;-55
2024/01/08 03:10:57;;;;;;;2.90;2.70;;;;;;;-1.81;60.94;102810.56;4995609;28;97299;-55
2024/01/08 03:13:22;;;;;;;4.30;2.90;;;;;;;-1.78;60.82;102809.84;4993806;28;97556;-55
2024/01/08 03:15:47;;;;;;;4.50;3.40;;;;;;;-1.84;60.87;102811.34;4992355;28;97384;-55
2024/01/08 03:18:13;;;;;;;2.87;2.60;;;;;;;-1.89;60.79;102817.13;4993241;28;97089;-55
2024/01/08 03:20:39;;;;;;;3.50;2.90;;;;;;;-2.00;60.86;102823.25;5001129;28;97422;-55
2024/01/08 03:23:04;;;;;;;3.43;3.10;;;;;;;-2.02;60.70;102806.59;4994092;28;96903;-55
2024/01/08 03:25:29;;;;;;;4.67;3.00;;;;;;;-2.01;61.28;102818.97;4992756;28;97257;-55
2024/01/08 03:27:55;;;;;;;4.20;2.97;;;;;;;-2.03;61.22;102815.09;4996149;28;97293;-55
2024/01/08 03:30:20;;;;;;;4.30;2.43;;;;;;;-2.01;61.36;102810.84;4992847;28;97726;-55
2024/01/08 03:32:45;;;;;;;2.57;2.37;;;;;;;-1.99;61.06;102811.25;4995749;28;97657;-55
2024/01/08 03:35:11;;;;;;;3.40;2.70;;;;;;;-2.01;61.02;102812.78;4993983;28;97534;-55
2024/01/08 03:37:36;;;;;;;3.63;3.10;;;;;;;-1.97;61.24;102814.34;4997718;28;96918;-55
2024/01/08 03:40:04;;;;;;;2.33;2.13;;;;;;;-1.94;61.11;102818.25;4994206;28;97197;-55
2024/01/08 03:42:29;;;;;;;5.07;2.60;;;;;;;-1.90;61.16;102815.56;4990262;28;97431;-55
2024/01/08 03:44:55;;;;;;;2.53;2.30;;;;;;;-1.90;61.38;102816.34;4993013;28;98524;-54
2024/01/08 03:47:20;;;;;;;2.80;2.27;;;;;;;-1.89;61.07;102817.91;4993214;28;97259;-55
2024/01/08 03:49:45;;;;;;;2.27;2.07;;;;;;;-1.89;60.98;102814.41;4994731;28;97722;-55
2024/01/08 03:52:11;;;;;;;2.27;2.17;;;;;;;-1.95;61.16;102818.63;4994211;28;97149;-55
2024/01/08 03:54:37;;;;;;;2.60;2.40;;;;;;;-1.94;61.20;102820.19;4994280;28;97164;-55
2024/01/08 03:57:02;;;;;;;3.13;2.17;;;;;;;-1.97;60.99;102817.06;4997458;28;96859;-55
2024/01/08 03:59:28;;;;;;;2.23;2.03;;;;;;;-1.94;61.05;102820.19;4994879;28;97103;-55
2024/01/08 04:01:54;;;;;;;3.23;2.80;;;;;;;-1.99;60.95;102819.38;4993575;28;97280;-55
2024/01/08 04:04:19;;;;;;;2.20;2.00;;;;;;;-2.00;61.36;102828.69;4992361;28;97071;-54
2024/01/08 04:06:45;;;;;;;2.90;1.93;;;;;;;-1.97;61.16;102824.41;4992891;28;97241;-55
2024/01/08 04:09:11;;;;;;;3.40;2.40;;;;;;;-1.97;61.27;102824.41;4989878;28;97457;-55
2024/01/08 04:11:36;;;;;;;3.50;2.30;;;;;;;-1.94;61.10;102817.47;4992210;28;97574;-54
2024/01/08 04:14:02;;;;;;;2.50;2.30;;;;;;;-1.93;61.09;102819.81;4990133;28;102298;-55
2024/01/08 04:16:27;;;;;;;1.90;1.70;;;;;;;-1.89;61.34;102822.56;4991133;28;97153;-54
2024/01/08 04:18:53;;;;;;;3.27;2.13;;;;;;;-1.87;61.32;102829.16;4991289;28;96961;-54
2024/01/08 04:21:18;;;;;;;2.20;2.00;;;;;;;-1.82;61.18;102836.16;4995419;28;97318;-54
2024/01/08 04:23:44;;;;;;;3.57;2.10;;;;;;;-1.81;60.91;102835.00;4989663;28;97025;-54
2024/01/08 04:26:16;;;;;;;2.50;2.27;;;;;;;-1.84;60.76;102831.09;4991569;28;96811;-54
2024/01/08 04:28:42;;;;;;;1.73;1.63;;;;;;;-1.86;60.97;102832.66;4995954;28;97066;-54
2024/01/08 04:31:07;;;;;;;2.00;1.80;;;;;;;-1.84;60.89;102838.47;4993304;28;96933;-54
2024/01/08 04:33:33;;;;;;;1.60;1.50;;;;;;;-1.79;60.79;102840.81;4990685;28;97211;-54
2024/01/08 04:35:59;;;;;;;2.27;2.07;;;;;;;-1.82;60.78;102844.31;4993825;28;97008;-54
2024/01/08 04:38:24;;;;;;;2.03;1.83;;;;;;;-1.85;61.01;102837.69;4992894;28;96831;-54
2024/01/08 04:40:49;;;;;;;4.00;2.37;;;;;;;-1.84;61.06;102839.22;4992756;28;96798;-55
2024/01/08 04:43:14;;;;;;;3.33;2.10;;;;;;;-1.85;60.92;102842.34;4997644;28;97286;-54
2024/01/08 04:45:40;;;;;;;2.60;2.00;;;;;;;-1.81;61.07;102840.41;4991580;28;96919;-55
2024/01/08 04:48:05;;;;;;;3.70;2.67;;;;;;;-1.78;60.75;102839.69;4992373;28;97505;-55
2024/01/08 04:50:31;;;;;;;2.87;1.83;;;;;;;-1.77;60.78;102838.50;4993311;28;98125;-54
2024/01/08 04:52:57;;;;;;;2.43;1.90;;;;;;;-1.71;61.00;102848.63;4986526;28;97161;-56
2024/01/08 04:55:23;;;;;;;3.37;2.03;;;;;;;-1.67;60.95;102843.25;4991158;28;97120;-54
2024/01/08 04:57:49;;;;;;;1.97;1.80;;;;;;;-1.71;60.74;102842.44;4993218;28;96843;-54
2024/01/08 05:00:14;;;;;;;2.50;2.07;;;;;;;-1.78;60.78;102850.53;4989217;28;97457;-54
2024/01/08 05:02:39;;;;;;;2.03;1.77;;;;;;;-1.73;60.90;102847.47;4990412;28;97290;-54
2024/01/08 05:05:06;;;;;;;3.00;2.20;;;;;;;-1.75;60.83;102858.69;4990917;28;97182;-54
2024/01/08 05:07:31;;;;;;;2.07;1.87;;;;;;;-1.74;60.87;102856.75;4991290;28;97042;-54
2024/01/08 05:09:57;;;;;;;2.33;1.70;;;;;;;-1.71;60.69;102854.06;4993525;28;102914;-55
2024/01/08 05:12:22;;;;;;;2.23;1.57;;;;;;;-1.73;60.67;102871.91;4995865;28;97403;-54
2024/01/08 05:14:47;;;;;;;2.97;2.30;;;;;;;-1.72;60.89;102851.72;4992977;28;97149;-54
2024/01/08 05:17:13;;;;;;;2.10;2.00;;;;;;;-1.75;60.73;102858.69;4991659;28;96960;-54
2024/01/08 05:19:38;;;;;;;2.17;1.97;;;;;;;-1.77;60.84;102863.72;4991583;28;98538;-54
2024/01/08 05:22:03;;;;;;;3.40;1.90;;;;;;;-1.74;60.89;102862.19;4990526;28;98476;-54
2024/01/08 05:24:29;;;;;;;2.80;2.40;;;;;;;-1.72;60.91;102885.06;4990429;28;97225;-54
2024/01/08 05:26:54;;;;;;;1.67;1.57;;;;;;;-1.67;60.87;102876.59;4994095;28;97190;-54
2024/01/08 05:29:19;;;;;;;1.70;1.50;;;;;;;-1.60;61.12;102881.28;4991948;28;110853;-54
2024/01/08 05:31:45;;;;;;;1.80;1.70;;;;;;;-1.52;60.80;102889.09;4991549;28;98500;-54
2024/01/08 05:34:10;;;;;;;2.27;2.13;;;;;;;-1.51;60.81;102879.00;4993002;28;97742;-54
2024/01/08 05:36:35;;;;;;;2.00;1.80;;;;;;;-1.58;60.42;102885.16;4993115;28;98803;-54
2024/01/08 05:39:01;;;;;;;2.33;2.13;;;;;;;-1.62;60.44;102894.47;4997882;28;97368;-54
2024/01/08 05:41:26;;;;;;;2.70;1.83;;;;;;;-1.66;60.71;102893.63;4995667;28;97547;-54
2024/01/08 05:43:51;;;;;;;2.53;1.90;;;;;;;-1.63;60.65;102884.75;4993493;28;97021;-54
2024/01/08 05:46:17;;;;;;;2.30;2.10;;;;;;;-1.63;60.73;102898.31;5001824;28;97196;-54
2024/01/08 05:48:42;;;;;;;2.60;2.40;;;;;;;-1.66;60.63;102897.13;4994223;28;96843;-54
2024/01/08 05:51:08;;;;;;;2.10;1.90;;;;;;;-1.67;60.46;102894.81;4996992;28;98904;-54
2024/01/08 05:53:33;;;;;;;2.97;1.80;;;;;;;-1.72;60.70;102908.72;4994222;28;97235;-54
2024/01/08 05:56:01;;;;;;;2.20;1.70;;;;;;;-1.80;60.44;102909.81;4995099;28;98752;-54
2024/01/08 05:58:26;;;;;;;3.10;2.33;;;;;;;-1.93;60.48;102908.56;4995623;28;97572;-54
2024/01/08 06:00:54;;;;;;;2.27;2.07;;;;;;;-2.00;60.37;102901.13;4994110;28;96668;-54
2024/01/08 06:03:21;;;;;;;2.87;2.03;;;;;;;-2.02;60.68;102911.59;4996402;28;97207;-54
2024/01/08 06:05:46;;;;;;;3.97;2.67;;;;;;;-2.06;60.25;102914.25;4994695;28;96864;-54
2024/01/08 06:08:11;;;;;;;3.90;2.57;;;;;;;-2.06;60.50;102914.25;4995915;28;100667;-54
2024/01/08 06:10:38;;;;;;;2.70;2.30;;;;;;;-2.09;60.29;102939.41;4996303;28;97178;-54
2024/01/08 06:13:03;;;;;;;3.10;2.77;;;;;;;-2.11;60.39;102924.66;4996093;28;97031;-54
2024/01/08 06:15:28;;;;;;;2.57;2.30;;;;;;;-2.16;60.42;102931.22;4995654;28;96774;-54
2024/01/08 06:17:54;;;;;;;3.07;2.20;;;;;;;-2.21;60.30;102926.13;4995429;28;97844;-54
2024/01/08 06:20:19;;;;;;;2.77;2.47;;;;;;;-2.24;59.99;102932.31;4994333;28;97267;-54
2024/01/08 06:22:45;;;;;;;2.63;2.37;;;;;;;-2.29;60.30;102934.56;4995017;28;96971;-54
2024/01/08 06:25:10;;;;;;;2.67;2.40;;;;;;;-2.34;60.16;102935.66;4995784;28;97645;-54
2024/01/08 06:27:35;;;;;;;2.97;2.10;;;;;;;-2.35;60.44;102944.97;4993780;28;97228;-54
2024/01/08 06:30:01;;;;;;;3.17;2.30;;;;;;;-2.43;60.16;102932.47;4995099;28;107825;-54
2024/01/08 06:32:26;;;;;;;1.80;1.70;;;;;;;-2.47;60.13;102944.41;4996646;28;97098;-54
2024/01/08 06:34:51;;;;;;;2.40;2.10;;;;;;;-2.53;60.11;102954.81;4995689;28;97274;-54
2024/01/08 06:37:17;;;;;;;3.83;2.43;;;;;;;-2.53;59.92;102957.53;4994298;28;97638;-54
2024/01/08 06:39:42;;;;;;;2.50;2.30;;;;;;;-2.55;60.20;102953.63;4996476;28;97143;-54
2024/01/08 06:42:08;;;;;;;3.43;2.03;;;;;;;-2.61;59.83;102966.75;4997429;28;97091;-54
2024/01/08 06:44:33;;;;;;;2.90;2.43;;;;;;;-2.73;59.84;102969.66;4994568;28;97024;-54
2024/01/08 06:46:58;;;;;;;2.50;1.90;;;;;;;-2.78;59.67;102975.44;4995512;28;97044;-54
2024/01/08 06:49:24;;;;;;;2.33;2.10;;;;;;;-2.82;59.63;102972.66;4992399;28;103951;-54
2024/01/08 06:51:49;;;;;;;3.00;1.97;;;;;;;-2.82;59.80;102988.91;4998877;28;100620;-54
2024/01/08 06:54:14;;;;;;;2.70;2.50;;;;;;;-2.81;59.62;102993.19;4996063;28;99370;-54
2024/01/08 06:56:40;;;;;;;2.03;1.90;;;;;;;-2.88;59.48;103000.44;4994988;28;97314;-54
2024/01/08 06:59:05;;;;;;;2.70;2.40;;;;;;;-2.88;59.43;103003.13;4993445;28;98551;-53
2024/01/08 07:01:31;;;;;;;2.40;2.20;;;;;;;-2.93;59.55;103001.53;4997400;28;97307;-53
2024/01/08 07:03:57;;;;;;;2.73;2.10;;;;;;;-2.94;59.56;103001.91;4992802;28;97020;-54
2024/01/08 07:06:23;;;;;;;2.50;2.10;;;;;;;-2.96;59.61;103009.63;4993588;28;96705;-56
2024/01/08 07:08:48;;;;;;;2.30;1.90;;;;;;;-3.05;59.27;103007.16;4995689;28;96953;-56
2024/01/08 07:11:21;;;;;;;2.40;2.20;;;;;;;-3.15;58.83;103005.06;4995458;28;97073;-56
2024/01/08 07:13:46;;;;;;;3.20;2.20;;;;;;;-3.16;59.22;103018.97;4991662;28;96865;-56
2024/01/08 07:16:12;;;;;;;3.80;2.10;;;;;;;-3.22;58.77;103020.44;4995396;28;97423;-56
2024/01/08 07:18:37;;;;;;;3.97;2.70;;;;;;;-3.31;58.58;103033.44;4994802;28;97620;-56
2024/01/08 07:21:02;;;;;;;2.67;2.30;;;;;;;-3.36;58.98;103023.69;4996020;28;97556;-56
2024/01/08 07:23:28;;;;;;;2.90;2.30;;;;;;;-3.37;59.31;103018.66;4993589;28;97009;-56
2024/01/08 07:25:53;;;;;;;2.20;2.00;;;;;;;-3.39;58.95;103032.53;4992763;28;110705;-56
2024/01/08 07:28:18;;;;;;;2.23;2.03;;;;;;;-3.38;58.91;103034.09;4998059;28;97338;-56
2024/01/08 07:30:44;;;;;;;2.10;1.90;;;;;;;-3.47;58.70;103022.75;4991561;28;97065;-56
2024/01/08 07:33:09;;;;;;;3.37;2.33;;;;;;;-3.55;58.76;103031.91;4992778;28;97075;-56
2024/01/08 07:35:34;;;;;;;4.90;2.67;;;;;;;-3.60;58.38;103035.69;4992540;28;97665;-56
2024/01/08 07:38:00;;;;;;;3.03;2.13;;;;;;;-3.56;58.81;103038.44;4995013;28;97046;-56
2024/01/08 07:40:26;;;;;;;4.73;2.00;;;;;;;-3.55;58.50;103042.72;4992297;28;98822;-56
2024/01/08 07:42:53;;;;;;;4.10;2.27;;;;;;;-3.54;59.01;103045.06;4994859;28;97102;-55
2024/01/08 07:45:18;;;;;;;2.77;2.33;;;;;;;-3.57;58.68;103048.47;4994927;28;97124;-55
2024/01/08 07:47:44;;;;;;;4.70;2.30;;;;;;;-3.61;58.81;103038.75;4992070;28;97250;-55
2024/01/08 07:50:09;;;;;;;3.23;2.40;;;;;;;-3.62;58.51;103048.00;4992861;28;96857;-55
2024/01/08 07:52:36;;;;;;;2.33;2.13;;;;;;;-3.59;58.58;103047.28;4994064;28;96992;-55
2024/01/08 07:55:02;;;;;;;3.53;2.07;;;;;;;-3.60;58.86;103046.50;4993257;28;97341;-55
2024/01/08 07:57:27;;;;;;;2.70;2.30;;;;;;;-3.66;57.66;103047.16;4993369;28;97437;-56
2024/01/08 07:59:52;;;;;;;4.13;2.83;;;;;;;-3.70;58.44;103049.78;4992929;28;99100;-55
2024/01/08 08:02:18;;;;;;;3.30;2.70;;;;;;;-3.72;57.86;103054.00;4991851;28;97171;-55
2024/01/08 08:04:43;;;;;;;2.83;2.13;;;;;;;-3.70;58.20;103062.56;4992251;28;97512;-55
2024/01/08 08:07:08;;;;;;;3.00;2.57;;;;;;;-3.71;58.42;103053.66;4991572;28;99351;-55
2024/01/08 08:09:34;;;;;;;2.40;2.07;;;;;;;-3.75;57.89;103054.72;4993534;28;96741;-55
2024/01/08 08:11:59;;;;;;;2.70;2.00;;;;;;;-3.78;57.22;103064.31;4996516;28;97039;-55
2024/01/08 08:14:26;;;;;;;2.90;2.00;;;;;;;-3.81;57.73;103070.47;4992339;28;98546;-55
2024/01/08 08:16:52;;;;;;;3.10;2.43;;;;;;;-3.82;57.33;103068.91;4993986;28;97158;-55
2024/01/08 08:19:18;;;;;;;2.47;2.27;;;;;;;-3.83;58.08;103070.03;4993720;28;96671;-55
2024/01/08 08:21:43;;;;;;;2.90;2.17;;;;;;;-3.82;57.82;103074.31;4995850;28;96959;-55
2024/01/08 08:24:08;;;;;;;2.50;2.27;;;;;;;-3.80;57.86;103082.06;4992707;28;97236;-55
2024/01/08 08:26:34;;;;;;;3.43;2.27;;;;;;;-3.80;57.43;103080.13;4993815;28;97317;-55
2024/01/08 08:29:00;;;;;;;2.87;1.90;;;;;;;-3.78;57.82;103085.19;4994509;28;97331;-55
2024/01/08 08:31:25;;;;;;;2.80;2.57;;;;;;;-3.75;57.78;103087.19;4992424;28;97382;-55
2024/01/08 08:33:51;;;;;;;2.07;1.87;;;;;;;-3.77;57.56;103082.13;4991600;28;97157;-55
2024/01/08 08:36:16;;;;;;;2.90;2.00;;;;;;;-3.80;56.57;103093.66;4991204;28;99663;-55
2024/01/08 08:38:41;;;;;;;3.87;2.30;;;;;;;-3.78;57.75;103098.69;4990966;28;97347;-55
2024/01/08 08:41:07;;;;;;;2.13;1.93;;;;;;;-3.77;57.40;103092.16;4990397;28;97569;-52
2024/01/08 08:43:32;;;;;;;2.93;1.90;;;;;;;-3.73;57.74;103107.31;4994125;28;97260;-52
2024/01/08 08:45:59;;;;;;;3.03;2.10;;;;;;;-3.76;56.61;103107.25;4991398;28;98295;-52
2024/01/08 08:48:24;;;;;;;3.00;2.13;;;;;;;-3.76;57.01;103118.84;4993260;28;97311;-52
2024/01/08 08:50:49;;;;;;;3.50;2.13;;;;;;;-3.80;56.61;103115.28;4993772;28;96709;-52
2024/01/08 08:53:15;;;;;;;3.00;2.70;;;;;;;-3.80;57.04;103112.59;4993108;28;106143;-52
2024/01/08 08:55:40;;;;;;;3.10;2.77;;;;;;;-3.77;56.64;103116.50;4990449;28;97922;-52
2024/01/08 08:58:09;;;;;;;3.37;2.87;;;;;;;-3.88;55.20;103135.25;4994522;28;99915;-52
2024/01/08 09:00:37;;;;;;;3.43;2.37;;;;;;;-3.86;55.61;103132.97;4996575;28;97070;-52
2024/01/08 09:03:05;;;;;;;3.63;2.60;;;;;;;-3.78;56.85;103137.34;4990488;28;97454;-52
2024/01/08 09:05:31;;;;;;;4.40;2.47;;;;;;;-3.76;56.42;103142.41;4992630;28;97182;-52
2024/01/08 09:07:57;;;;;;;4.13;2.40;;;;;;;-3.81;55.82;103140.00;4992476;28;96955;-52
2024/01/08 09:10:22;;;;;;;2.47;2.03;;;;;;;-3.80;56.29;103136.16;4993064;28;97130;-53
2024/01/08 09:12:48;;;;;;;3.37;2.60;;;;;;;-3.80;55.48;103141.56;4993763;28;103130;-52
2024/01/08 09:15:13;;;;;;;2.27;2.07;;;;;;;-3.76;54.88;103142.41;4996588;28;97051;-52
2024/01/08 09:17:38;;;;;;;3.50;2.80;;;;;;;-3.79;54.95;103141.22;4994883;28;97216;-52
2024/01/08 09:20:05;;;;;;;2.37;2.17;;;;;;;-3.77;55.84;103152.47;4997718;28;97221;-52
2024/01/08 09:22:31;;;;;;;3.73;2.40;;;;;;;-3.84;54.74;103146.91;4995859;28;97553;-52
2024/01/08 09:24:57;;;;;;;3.90;2.70;;;;;;;-3.73;56.08;103156.00;4995261;28;100417;-52
2024/01/08 09:27:23;;;;;;;2.37;2.20;;;;;;;-3.64;55.96;103167.41;4995388;28;96985;-52
2024/01/08 09:29:48;;;;;;;2.30;2.10;;;;;;;-3.56;56.11;103162.88;4996428;28;96879;-52
2024/01/08 09:32:14;;;;;;;2.37;2.20;;;;;;;-3.57;55.80;103162.09;4995870;28;97708;-52
2024/01/08 09:34:39;;;;;;;4.40;2.43;;;;;;;-3.52;56.02;103169.94;4997652;28;98370;-52
2024/01/08 09:37:05;;;;;;;2.43;2.00;;;;;;;-3.54;56.13;103172.22;4994138;28;96669;-52
2024/01/08 09:39:32;;;;;;;4.10;2.37;;;;;;;-3.46;56.55;103172.38;4996897;28;97370;-52
2024/01/08 09:42:00;;;;;;;2.80;2.60;;;;;;;-3.43;55.15;103175.13;4995349;28;97312;-52
2024/01/08 09:44:28;;;;;;;2.73;2.07;;;;;;;-3.44;55.36;103173.56;4995325;28;98426;-52
2024/01/08 09:46:55;;;;;;;1.60;1.50;;;;;;;-3.39;56.59;103172.50;4996959;28;96690;-52
2024/01/08 09:49:22;;;;;;;2.30;2.10;;;;;;;-3.37;55.33;103173.72;4999023;28;97425;-52
2024/01/08 09:51:48;;;;;;;2.60;2.40;;;;;;;-3.36;54.81;103185.31;4994604;28;96722;-52
2024/01/08 09:54:16;;;;;;;2.77;2.40;;;;;;;-3.36;55.08;103185.31;4994004;28;97174;-52
2024/01/08 09:56:41;;;;;;;4.30;2.63;;;;;;;-3.36;54.79;103171.78;4995589;28;97263;-52
2024/01/08 09:59:06;;;;;;;3.10;1.90;;;;;;;-3.34;55.31;103177.59;4997100;28;96810;-51
2024/01/08 10:01:32;;;;;;;2.20;2.00;;;;;;;-3.27;56.06;103178.53;4994466;28;97218;-52
2024/01/08 10:03:59;;;;;;;2.60;1.90;;;;;;;-3.24;55.82;103195.97;4994121;28;106225;-52
2024/01/08 10:06:24;;;;;;;4.07;2.33;;;;;;;-3.23;55.93;103181.28;4996480;28;97059;-52
2024/01/08 10:08:51;;;;;;;3.80;2.10;;;;;;;-3.12;55.78;103188.47;4996486;28;97087;-51
2024/01/08 10:11:16;;;;;;;3.30;2.70;;;;;;;-3.09;55.87;103176.94;4994599;28;98620;-52
2024/01/08 10:13:41;;;;;;;4.40;2.03;;;;;;;-3.01;55.98;103172.41;4992678;28;97107;-51
2024/01/08 10:16:08;;;;;;;1.80;1.53;;;;;;;-2.93;56.14;103174.06;4993489;28;97229;-51
2024/01/08 10:18:33;;;;;;;2.57;1.93;;;;;;;-2.94;54.39;103180.66;4995623;28;96843;-52
2024/01/08 10:21:12;;;;;;;2.40;2.20;;;;;;;-2.95;55.50;103169.03;4994716;28;97054;-51
2024/01/08 10:23:37;;;;;;;3.57;2.70;;;;;;;-2.95;55.38;103160.13;4996966;28;97599;-52
2024/01/08 10:26:04;;;;;;;3.20;2.33;;;;;;;-2.89;56.04;103166.81;4994250;28;97145;-52
2024/01/08 10:28:36;;;;;;;2.87;2.30;;;;;;;-2.83;55.99;103168.06;4994250;28;96693;-51
2024/01/08 10:31:06;;;;;;;2.83;1.87;;;;;;;-2.76;56.43;103168.19;4992615;28;98078;-52
2024/01/08 10:33:32;;;;;;;2.67;1.93;;;;;;;-2.74;56.31;103171.31;4995782;28;97607;-51
2024/01/08 10:36:00;;;;;;;3.27;2.73;;;;;;;-2.76;55.42;103163.53;4992877;28;96791;-52
2024/01/08 10:38:29;;;;;;;2.80;2.30;;;;;;;-2.73;56.20;103170.16;4996407;28;97386;-52
2024/01/08 10:40:56;;;;;;;4.10;2.03;;;;;;;-2.77;55.06;103155.78;4995514;28;97632;-52
2024/01/08 10:43:21;;;;;;;2.97;1.80;;;;;;;-2.74;56.39;103160.47;4993772;28;97181;-51
2024/01/08 10:45:52;;;;;;;2.83;2.53;;;;;;;-2.66;55.37;103185.75;4996390;28;97027;-52
2024/01/08 10:48:21;;;;;;;2.73;2.20;;;;;;;-2.61;56.24;103153.72;4995242;28;96737;-52
2024/01/08 10:50:51;;;;;;;3.67;2.40;;;;;;;-2.66;55.75;103162.13;4996299;28;96722;-52
2024/01/08 10:53:46;;;;;;;2.97;2.33;;;;;;;-2.62;54.98;103151.34;4996080;28;97195;-52
2024/01/08 10:56:16;;;;;;;2.43;2.20;;;;;;;-2.54;56.26;103153.78;4992808;28;97163;-52
2024/01/08 10:58:51;;;;;;;2.47;1.80;;;;;;;-2.46;56.63;103154.69;4996511;28;97163;-52
2024/01/08 11:01:17;;;;;;;1.97;1.83;;;;;;;-2.41;56.69;103163.28;4993255;28;97773;-52
2024/01/08 11:03:44;;;;;;;4.20;2.53;;;;;;;-2.39;55.89;103161.00;4992070;28;96740;-52
2024/01/08 11:06:10;;;;;;;3.40;2.33;;;;;;;-2.34;56.28;103160.69;4994663;28;97013;-52
2024/01/08 11:08:35;;;;;;;3.57;2.27;;;;;;;-2.37;55.92;103157.94;4994867;28;98935;-51
2024/01/08 11:11:11;;;;;;;5.50;2.70;;;;;;;-2.35;55.75;103159.13;4995404;28;98030;-51
2024/01/08 11:13:40;;;;;;;2.70;2.50;;;;;;;-2.31;56.51;103168.09;4992863;28;96884;-52
2024/01/08 11:16:06;;;;;;;2.27;1.83;;;;;;;-2.20;56.18;103170.94;4996054;28;97226;-52
2024/01/08 11:18:32;;;;;;;3.70;2.30;;;;;;;-2.12;56.71;103178.81;4994468;28;96618;-51